createdAt,value
2018-06-22T00:00:27.008Z,65.33
2018-06-22T00:05:30.187Z,65.48
2018-06-22T00:10:34.192Z,65.62
2018-06-22T00:15:37.285Z,65.88
2018-06-22T00:20:40.427Z,65.30
2018-06-22T00:25:43.520Z,65.55
2018-06-22T00:30:46.655Z,66.49
2018-06-22T00:35:49.851Z,65.30
2018-06-22T00:40:53.021Z,65.70
2018-06-22T00:45:56.224Z,65.29
2018-06-22T00:50:59.461Z,65.77
2018-06-22T00:56:02.557Z,65.80
2018-06-22T01:01:05.711Z,66.83
2018-06-22T01:06:08.870Z,67.76
2018-06-22T01:11:12.325Z,68.25
2018-06-22T01:16:15.526Z,67.83
2018-06-22T01:21:18.685Z,68.46
2018-06-22T01:26:21.818Z,68.20
2018-06-22T01:31:25.099Z,68.07
2018-06-22T01:36:28.323Z,68.29
2018-06-22T01:41:31.516Z,69.13
2018-06-22T01:46:34.929Z,69.18
2018-06-22T01:51:38.030Z,68.98
2018-06-22T01:56:41.162Z,68.83
2018-06-22T02:01:44.312Z,69.67
2018-06-22T02:06:47.428Z,68.77
2018-06-22T02:11:50.627Z,68.00
2018-06-22T02:16:54.049Z,68.91
2018-06-22T02:21:57.190Z,68.73
2018-06-22T02:27:00.432Z,67.86
2018-06-22T02:32:03.592Z,68.11
2018-06-22T02:37:06.806Z,67.99
2018-06-22T02:42:09.932Z,68.72
2018-06-22T02:47:13.038Z,67.55
2018-06-22T02:52:16.129Z,66.69
2018-06-22T02:57:19.319Z,66.28
2018-06-22T03:02:23.203Z,66.26
2018-06-22T03:07:26.410Z,64.93
2018-06-22T03:12:29.523Z,65.09
2018-06-22T03:17:32.722Z,65.23
2018-06-22T03:22:39.958Z,64.62
2018-06-22T03:27:43.179Z,63.96
2018-06-22T03:32:46.335Z,64.25
2018-06-22T03:37:49.531Z,63.72
2018-06-22T03:42:52.733Z,63.97
2018-06-22T03:47:56.042Z,63.38
2018-06-22T03:52:59.856Z,63.38
2018-06-22T03:58:03.175Z,62.73
2018-06-22T04:03:06.419Z,61.67
2018-06-22T04:08:09.793Z,61.60
2018-06-22T04:13:12.877Z,62.33
2018-06-22T04:18:16.050Z,61.94
2018-06-22T04:23:19.189Z,62.29
2018-06-22T04:28:25.593Z,64.04
2018-06-22T04:33:28.904Z,62.19
2018-06-22T04:38:32.122Z,61.61
2018-06-22T04:43:35.249Z,61.73
2018-06-22T04:48:38.416Z,60.99
2018-06-22T04:53:41.549Z,60.83
2018-06-22T04:58:45.288Z,60.09
2018-06-22T05:03:49.420Z,59.81
2018-06-22T05:08:52.757Z,59.32
2018-06-22T05:13:55.949Z,60.50
2018-06-22T05:18:59.259Z,61.17
2018-06-22T05:24:03.995Z,59.70
2018-06-22T05:29:07.168Z,58.54
2018-06-22T05:34:10.317Z,59.34
2018-06-22T05:39:13.568Z,57.77
2018-06-22T05:44:16.783Z,57.57
2018-06-22T05:49:19.924Z,57.56
2018-06-22T05:54:24.397Z,56.95
2018-06-22T05:59:27.698Z,56.99
2018-06-22T06:04:30.878Z,57.27
2018-06-22T06:09:34.159Z,57.69
2018-06-22T06:14:37.405Z,58.23
2018-06-22T06:19:40.513Z,58.96
2018-06-22T06:24:43.721Z,57.99
2018-06-22T06:29:46.900Z,56.67
2018-06-22T06:34:50.017Z,55.93
2018-06-22T06:39:53.309Z,55.98
2018-06-22T06:44:56.629Z,53.39
2018-06-22T06:50:00.302Z,49.48
2018-06-22T06:55:03.945Z,50.13
2018-06-22T07:00:07.142Z,55.03
2018-06-22T07:05:10.275Z,56.06
2018-06-22T07:10:13.503Z,55.41
2018-06-22T07:15:16.666Z,56.12
2018-06-22T07:20:19.832Z,51.53
2018-06-22T07:25:25.163Z,50.78
2018-06-22T07:30:28.441Z,50.00
2018-06-22T07:35:31.724Z,48.71
2018-06-22T07:40:34.858Z,39.22
2018-06-22T07:45:37.937Z,34.18
2018-06-22T07:50:41.159Z,37.51
2018-06-22T07:55:44.287Z,44.33
2018-06-22T08:00:48.143Z,47.28
2018-06-22T08:05:51.288Z,49.66
2018-06-22T08:10:54.512Z,45.67
2018-06-22T08:15:59.809Z,45.82
2018-06-22T08:21:03.001Z,47.57
2018-06-22T08:26:06.764Z,45.56
2018-06-22T08:31:11.489Z,43.46
2018-06-22T08:36:14.622Z,41.85
2018-06-22T08:41:17.804Z,42.44
2018-06-22T08:46:20.950Z,47.05
2018-06-22T08:51:25.451Z,50.14
2018-06-22T08:56:28.682Z,52.29
2018-06-22T09:01:32.015Z,51.06
2018-06-22T09:06:35.291Z,41.77
2018-06-22T09:11:38.462Z,39.86
2018-06-22T09:16:41.630Z,44.61
2018-06-22T09:21:44.780Z,51.29
2018-06-22T09:26:47.950Z,52.46
2018-06-22T09:31:51.115Z,51.11
2018-06-22T09:36:54.905Z,47.68
2018-06-22T09:41:58.162Z,57.07
2018-06-22T09:47:01.294Z,64.18
2018-06-22T09:52:05.016Z,65.94
2018-06-22T09:57:08.236Z,70.15
2018-06-22T10:02:11.319Z,69.40
2018-06-22T10:07:14.418Z,70.82
2018-06-22T10:12:17.545Z,70.68
2018-06-22T10:17:20.776Z,70.63
2018-06-22T10:22:24.018Z,70.97
2018-06-22T10:27:27.406Z,67.95
2018-06-22T10:32:31.386Z,66.17
2018-06-22T10:37:34.595Z,60.15
2018-06-22T10:42:37.778Z,56.19
2018-06-22T10:47:40.985Z,46.38
2018-06-22T10:52:44.194Z,45.29
2018-06-22T10:57:47.349Z,44.49
2018-06-22T11:02:51.635Z,46.96
2018-06-22T11:07:54.920Z,40.53
2018-06-22T11:12:58.159Z,43.23
2018-06-22T11:18:01.381Z,62.66
2018-06-22T11:23:04.566Z,69.42
2018-06-22T11:28:07.795Z,72.18
2018-06-22T11:33:10.963Z,74.56
2018-06-22T11:38:14.195Z,70.62
2018-06-22T11:43:17.338Z,68.84
2018-06-22T11:48:20.528Z,63.83
2018-06-22T11:53:24.156Z,57.38
2018-06-22T11:58:27.363Z,53.55
2018-06-22T12:03:30.591Z,49.94
2018-06-22T12:08:33.872Z,48.50
2018-06-22T12:13:37.151Z,48.78
2018-06-22T12:18:40.292Z,47.77
2018-06-22T12:23:43.602Z,49.85
2018-06-22T12:28:46.804Z,46.81
2018-06-22T12:33:49.977Z,46.59
2018-06-22T12:38:54.438Z,45.53
2018-06-22T12:43:57.833Z,43.33
2018-06-22T12:49:01.066Z,46.17
2018-06-22T12:54:04.551Z,45.93
2018-06-22T12:59:09.038Z,45.89
2018-06-22T13:04:12.214Z,42.93
2018-06-22T13:09:15.383Z,44.22
2018-06-22T13:14:18.501Z,41.42
2018-06-22T13:19:21.663Z,41.94
2018-06-22T13:24:25.144Z,38.36
2018-06-22T13:29:28.604Z,39.30
2018-06-22T13:34:32.239Z,41.47
2018-06-22T13:39:35.399Z,42.35
2018-06-22T13:44:38.614Z,37.07
2018-06-22T13:49:41.774Z,33.94
2018-06-22T13:54:45.092Z,37.19
2018-06-22T13:59:48.232Z,39.22
2018-06-22T14:04:51.346Z,35.03
2018-06-22T14:09:54.733Z,35.65
2018-06-22T14:14:58.312Z,38.25
2018-06-22T14:20:01.530Z,36.21
2018-06-22T14:25:05.185Z,36.01
2018-06-22T14:30:08.355Z,35.04
2018-06-22T14:35:11.561Z,36.98
2018-06-22T14:40:14.848Z,36.53
2018-06-22T14:45:18.199Z,38.37
2018-06-22T14:50:21.441Z,37.07
2018-06-22T14:55:24.719Z,37.01
2018-06-22T15:00:28.246Z,38.30
2018-06-22T15:05:31.585Z,40.72
2018-06-22T15:10:34.752Z,44.41
2018-06-22T15:15:38.492Z,46.25
2018-06-22T15:20:41.697Z,46.49
2018-06-22T15:25:44.866Z,45.77
2018-06-22T15:30:48.034Z,42.83
2018-06-22T15:35:51.196Z,41.69
2018-06-22T15:40:55.419Z,42.50
2018-06-22T15:45:58.931Z,38.66
2018-06-22T15:51:02.240Z,36.30
2018-06-22T15:56:05.580Z,37.48
2018-06-22T16:01:08.804Z,35.60
2018-06-22T16:06:12.046Z,35.38
2018-06-22T16:11:15.168Z,36.00
2018-06-22T16:16:18.416Z,36.45
2018-06-22T16:21:21.712Z,36.50
2018-06-22T16:26:26.319Z,39.18
2018-06-22T16:31:29.725Z,40.65
2018-06-22T16:36:33.140Z,43.46
2018-06-22T16:41:36.913Z,44.73
2018-06-22T16:46:40.063Z,47.81
2018-06-22T16:51:43.248Z,45.37
2018-06-22T16:56:46.380Z,44.64
2018-06-22T17:01:49.470Z,44.82
2018-06-22T17:06:52.821Z,45.03
2018-06-22T17:11:56.587Z,45.05
2018-06-22T17:17:00.070Z,44.97
2018-06-22T17:22:03.419Z,47.39
2018-06-22T17:27:07.446Z,46.82
2018-06-22T17:32:10.655Z,47.79
2018-06-22T17:37:13.869Z,48.93
2018-06-22T17:42:17.065Z,47.26
2018-06-22T17:47:20.900Z,47.99
2018-06-22T17:52:26.436Z,47.97
2018-06-22T17:57:31.896Z,47.47
2018-06-22T18:02:36.886Z,48.00
2018-06-22T18:07:40.288Z,48.57
2018-06-22T18:12:44.965Z,46.47
2018-06-22T18:17:49.676Z,45.66
2018-06-22T18:22:54.742Z,43.86
2018-06-22T18:27:58.883Z,43.72
2018-06-22T18:33:02.577Z,44.64
2018-06-22T18:38:07.451Z,45.15
2018-06-22T18:43:11.968Z,44.82
2018-06-22T18:48:15.666Z,45.92
2018-06-22T18:53:19.993Z,45.83
2018-06-22T18:58:25.632Z,45.97
2018-06-22T19:03:30.746Z,44.97
2018-06-22T19:08:35.796Z,45.05
2018-06-22T19:13:52.081Z,45.44
2018-06-22T19:18:56.494Z,46.02
2018-06-22T19:23:59.868Z,46.55
2018-06-22T19:29:04.170Z,47.67
2018-06-22T19:34:09.065Z,47.86
2018-06-22T19:39:12.188Z,48.29
2018-06-22T19:44:21.811Z,48.44
2018-06-22T19:49:25.082Z,48.74
2018-06-22T19:54:28.349Z,49.13
2018-06-22T19:59:31.650Z,48.58
2018-06-22T20:04:34.883Z,47.27
2018-06-22T20:09:38.027Z,47.92
2018-06-22T20:14:41.130Z,47.76
2018-06-22T20:19:45.136Z,48.06
2018-06-22T20:24:48.335Z,48.15
2018-06-22T20:29:51.675Z,47.72
2018-06-22T20:34:54.875Z,48.12
2018-06-22T20:39:59.139Z,48.50
2018-06-22T20:45:03.829Z,48.54
2018-06-22T20:50:06.982Z,49.33
2018-06-22T20:55:10.098Z,50.10
2018-06-22T21:00:13.437Z,50.75
2018-06-22T21:05:16.751Z,51.37
2018-06-22T21:10:20.217Z,51.25
2018-06-22T21:15:23.398Z,51.63
2018-06-22T21:20:26.604Z,50.88
2018-06-22T21:25:30.051Z,50.59
2018-06-22T21:30:33.212Z,51.21
2018-06-22T21:35:38.318Z,51.06
2018-06-22T21:40:41.443Z,51.53
2018-06-22T21:45:44.586Z,51.63
2018-06-22T21:50:47.825Z,52.18
2018-06-22T21:55:51.154Z,53.17
2018-06-22T22:00:54.408Z,53.56
2018-06-22T22:05:57.668Z,54.47
2018-06-22T22:11:00.827Z,54.77
2018-06-22T22:16:04.220Z,55.29
2018-06-22T22:21:07.354Z,55.49
2018-06-22T22:26:10.480Z,56.01
2018-06-22T22:31:13.718Z,55.85
2018-06-22T22:36:16.910Z,55.99
2018-06-22T22:41:20.004Z,56.45
2018-06-22T22:46:23.232Z,58.57
2018-06-22T22:51:26.433Z,59.75
2018-06-22T22:56:29.690Z,59.75
2018-06-22T23:01:32.846Z,60.27
2018-06-22T23:06:36.066Z,59.97
2018-06-22T23:11:39.190Z,61.91
2018-06-22T23:16:42.379Z,63.40
2018-06-22T23:21:45.514Z,62.92
2018-06-22T23:26:48.683Z,61.24
2018-06-22T23:31:51.824Z,61.06
2018-06-22T23:36:55.034Z,61.48
2018-06-22T23:41:58.292Z,60.94
2018-06-22T23:47:01.479Z,60.47
2018-06-22T23:52:04.657Z,60.41
2018-06-22T23:57:07.867Z,61.20
